sensor_id;sensor_type;location;lat;lon;timestamp;temperature;humidity
7447;DHT22;3765;47.962;7.952;2022-09-03T00:00:52;17.30;69.00
7447;DHT22;3765;47.962;7.952;2022-09-03T00:03:25;17.20;69.10
7447;DHT22;3765;47.962;7.952;2022-09-03T00:06:04;17.30;69.10
7447;DHT22;3765;47.962;7.952;2022-09-03T00:08:37;17.30;69.20
7447;DHT22;3765;47.962;7.952;2022-09-03T00:11:12;17.30;69.10
7447;DHT22;3765;47.962;7.952;2022-09-03T00:13:49;17.30;69.10
7447;DHT22;3765;47.962;7.952;2022-09-03T00:16:21;17.30;69.10
7447;DHT22;3765;47.962;7.952;2022-09-03T00:18:54;17.20;69.10
7447;DHT22;3765;47.962;7.952;2022-09-03T00:21:30;17.30;69.10
7447;DHT22;3765;47.962;7.952;2022-09-03T00:24:02;17.30;69.20
7447;DHT22;3765;47.962;7.952;2022-09-03T00:26:37;17.30;69.20
7447;DHT22;3765;47.962;7.952;2022-09-03T00:29:12;17.40;69.10
7447;DHT22;3765;47.962;7.952;2022-09-03T00:31:44;17.30;68.80
7447;DHT22;3765;47.962;7.952;2022-09-03T00:34:18;17.30;68.90
7447;DHT22;3765;47.962;7.952;2022-09-03T00:36:49;17.40;68.90
7447;DHT22;3765;47.962;7.952;2022-09-03T00:39:19;17.40;68.70
7447;DHT22;3765;47.962;7.952;2022-09-03T00:41:55;17.50;68.70
7447;DHT22;3765;47.962;7.952;2022-09-03T00:44:47;17.40;68.70
7447;DHT22;3765;47.962;7.952;2022-09-03T00:47:26;17.50;68.70
7447;DHT22;3765;47.962;7.952;2022-09-03T00:50:04;17.40;68.70
7447;DHT22;3765;47.962;7.952;2022-09-03T00:52:45;17.40;68.90
7447;DHT22;3765;47.962;7.952;2022-09-03T00:55:24;17.40;69.20
7447;DHT22;3765;47.962;7.952;2022-09-03T00:58:06;17.40;69.30
7447;DHT22;3765;47.962;7.952;2022-09-03T01:00:42;17.40;69.30
7447;DHT22;3765;47.962;7.952;2022-09-03T01:03:15;17.40;69.40
7447;DHT22;3765;47.962;7.952;2022-09-03T01:05:58;17.40;69.50
7447;DHT22;3765;47.962;7.952;2022-09-03T01:08:38;17.30;69.70
7447;DHT22;3765;47.962;7.952;2022-09-03T01:11:20;17.30;69.80
7447;DHT22;3765;47.962;7.952;2022-09-03T01:13:58;17.30;69.80
7447;DHT22;3765;47.962;7.952;2022-09-03T01:16:34;17.30;69.80
7447;DHT22;3765;47.962;7.952;2022-09-03T01:19:18;17.30;69.80
7447;DHT22;3765;47.962;7.952;2022-09-03T01:22:03;17.30;69.70
7447;DHT22;3765;47.962;7.952;2022-09-03T01:24:50;17.30;69.80
7447;DHT22;3765;47.962;7.952;2022-09-03T01:27:36;17.30;69.90
7447;DHT22;3765;47.962;7.952;2022-09-03T01:30:08;17.40;69.90
7447;DHT22;3765;47.962;7.952;2022-09-03T01:32:48;17.30;70.00
7447;DHT22;3765;47.962;7.952;2022-09-03T01:35:22;17.30;70.10
7447;DHT22;3765;47.962;7.952;2022-09-03T01:38:05;17.20;70.30
7447;DHT22;3765;47.962;7.952;2022-09-03T01:40:47;17.20;70.50
7447;DHT22;3765;47.962;7.952;2022-09-03T01:43:31;17.10;70.50
7447;DHT22;3765;47.962;7.952;2022-09-03T01:46:17;17.10;70.80
7447;DHT22;3765;47.962;7.952;2022-09-03T01:48:51;17.10;70.80
7447;DHT22;3765;47.962;7.952;2022-09-03T01:51:22;17.10;70.80
7447;DHT22;3765;47.962;7.952;2022-09-03T01:57:23;17.00;71.20
7447;DHT22;3765;47.962;7.952;2022-09-03T02:00:05;17.10;71.10
7447;DHT22;3765;47.962;7.952;2022-09-03T02:02:36;17.00;71.20
7447;DHT22;3765;47.962;7.952;2022-09-03T02:05:09;17.00;71.20
7447;DHT22;3765;47.962;7.952;2022-09-03T02:07:40;17.00;71.30
7447;DHT22;3765;47.962;7.952;2022-09-03T02:10:12;17.00;71.40
7447;DHT22;3765;47.962;7.952;2022-09-03T02:12:44;17.00;71.40
7447;DHT22;3765;47.962;7.952;2022-09-03T02:15:16;17.00;71.50
7447;DHT22;3765;47.962;7.952;2022-09-03T02:17:47;17.00;71.50
7447;DHT22;3765;47.962;7.952;2022-09-03T02:20:19;17.00;71.50
7447;DHT22;3765;47.962;7.952;2022-09-03T02:22:47;17.00;71.60
7447;DHT22;3765;47.962;7.952;2022-09-03T02:25:16;16.90;71.80
7447;DHT22;3765;47.962;7.952;2022-09-03T02:27:46;16.90;71.90
7447;DHT22;3765;47.962;7.952;2022-09-03T02:30:15;16.90;71.90
7447;DHT22;3765;47.962;7.952;2022-09-03T02:32:46;16.90;72.00
7447;DHT22;3765;47.962;7.952;2022-09-03T02:35:14;16.90;72.10
7447;DHT22;3765;47.962;7.952;2022-09-03T02:37:43;16.90;72.00
7447;DHT22;3765;47.962;7.952;2022-09-03T02:40:11;17.00;72.10
7447;DHT22;3765;47.962;7.952;2022-09-03T02:42:40;17.00;72.00
7447;DHT22;3765;47.962;7.952;2022-09-03T02:45:15;17.10;71.90
7447;DHT22;3765;47.962;7.952;2022-09-03T02:47:50;17.10;71.90
7447;DHT22;3765;47.962;7.952;2022-09-03T02:50:19;17.20;71.90
7447;DHT22;3765;47.962;7.952;2022-09-03T02:52:48;17.30;71.90
7447;DHT22;3765;47.962;7.952;2022-09-03T02:55:16;17.30;71.90
7447;DHT22;3765;47.962;7.952;2022-09-03T02:57:45;17.20;71.90
7447;DHT22;3765;47.962;7.952;2022-09-03T03:00:14;17.10;72.00
7447;DHT22;3765;47.962;7.952;2022-09-03T03:02:42;17.20;72.10
7447;DHT22;3765;47.962;7.952;2022-09-03T03:05:19;17.20;72.20
7447;DHT22;3765;47.962;7.952;2022-09-03T03:07:49;17.10;72.20
7447;DHT22;3765;47.962;7.952;2022-09-03T03:10:17;17.20;72.40
7447;DHT22;3765;47.962;7.952;2022-09-03T03:12:45;17.20;72.30
7447;DHT22;3765;47.962;7.952;2022-09-03T03:15:13;17.10;72.40
7447;DHT22;3765;47.962;7.952;2022-09-03T03:17:42;17.10;72.40
7447;DHT22;3765;47.962;7.952;2022-09-03T03:20:10;17.10;72.60
7447;DHT22;3765;47.962;7.952;2022-09-03T03:22:40;17.10;72.70
7447;DHT22;3765;47.962;7.952;2022-09-03T03:25:08;17.10;72.80
7447;DHT22;3765;47.962;7.952;2022-09-03T03:27:36;17.10;72.80
7447;DHT22;3765;47.962;7.952;2022-09-03T03:30:08;17.20;72.70
7447;DHT22;3765;47.962;7.952;2022-09-03T03:32:37;17.10;72.70
7447;DHT22;3765;47.962;7.952;2022-09-03T03:35:06;17.10;72.70
7447;DHT22;3765;47.962;7.952;2022-09-03T03:37:34;17.10;72.90
7447;DHT22;3765;47.962;7.952;2022-09-03T03:40:05;17.10;73.00
7447;DHT22;3765;47.962;7.952;2022-09-03T03:42:34;17.10;73.10
7447;DHT22;3765;47.962;7.952;2022-09-03T03:45:02;17.10;73.10
7447;DHT22;3765;47.962;7.952;2022-09-03T03:47:31;17.20;73.20
7447;DHT22;3765;47.962;7.952;2022-09-03T03:50:00;17.20;73.20
7447;DHT22;3765;47.962;7.952;2022-09-03T03:52:28;17.20;73.20
7447;DHT22;3765;47.962;7.952;2022-09-03T03:54:57;17.20;73.30
7447;DHT22;3765;47.962;7.952;2022-09-03T03:57:29;17.20;73.30
7447;DHT22;3765;47.962;7.952;2022-09-03T03:59:58;17.20;73.30
7447;DHT22;3765;47.962;7.952;2022-09-03T04:02:26;17.20;73.30
7447;DHT22;3765;47.962;7.952;2022-09-03T04:04:54;17.20;73.50
7447;DHT22;3765;47.962;7.952;2022-09-03T04:07:24;17.30;73.50
7447;DHT22;3765;47.962;7.952;2022-09-03T04:09:52;17.30;73.50
7447;DHT22;3765;47.962;7.952;2022-09-03T04:12:21;17.30;73.50
7447;DHT22;3765;47.962;7.952;2022-09-03T04:14:50;17.30;73.50
7447;DHT22;3765;47.962;7.952;2022-09-03T04:17:18;17.30;73.50
7447;DHT22;3765;47.962;7.952;2022-09-03T04:19:51;17.30;73.60
7447;DHT22;3765;47.962;7.952;2022-09-03T04:22:19;17.30;73.60
7447;DHT22;3765;47.962;7.952;2022-09-03T04:24:47;17.30;73.60
7447;DHT22;3765;47.962;7.952;2022-09-03T04:27:15;17.30;73.70
7447;DHT22;3765;47.962;7.952;2022-09-03T04:29:44;17.30;73.70
7447;DHT22;3765;47.962;7.952;2022-09-03T04:32:13;17.30;73.70
7447;DHT22;3765;47.962;7.952;2022-09-03T04:34:59;17.30;73.80
7447;DHT22;3765;47.962;7.952;2022-09-03T04:37:27;17.30;73.80
7447;DHT22;3765;47.962;7.952;2022-09-03T04:39:55;17.30;73.80
7447;DHT22;3765;47.962;7.952;2022-09-03T04:42:23;17.30;73.80
7447;DHT22;3765;47.962;7.952;2022-09-03T04:44:52;17.30;73.80
7447;DHT22;3765;47.962;7.952;2022-09-03T04:47:21;17.40;73.80
7447;DHT22;3765;47.962;7.952;2022-09-03T04:49:49;17.40;73.80
7447;DHT22;3765;47.962;7.952;2022-09-03T04:52:20;17.50;73.70
7447;DHT22;3765;47.962;7.952;2022-09-03T04:54:48;17.80;73.60
7447;DHT22;3765;47.962;7.952;2022-09-03T04:57:16;17.90;73.30
7447;DHT22;3765;47.962;7.952;2022-09-03T04:59:44;18.20;72.70
7447;DHT22;3765;47.962;7.952;2022-09-03T05:02:13;18.30;72.50
7447;DHT22;3765;47.962;7.952;2022-09-03T05:04:42;18.20;72.30
7447;DHT22;3765;47.962;7.952;2022-09-03T05:07:12;18.20;72.30
7447;DHT22;3765;47.962;7.952;2022-09-03T05:09:40;18.30;72.50
7447;DHT22;3765;47.962;7.952;2022-09-03T05:12:08;18.40;72.10
7447;DHT22;3765;47.962;7.952;2022-09-03T05:14:37;18.30;72.10
7447;DHT22;3765;47.962;7.952;2022-09-03T05:17:05;18.20;72.20
7447;DHT22;3765;47.962;7.952;2022-09-03T05:19:33;18.10;72.40
7447;DHT22;3765;47.962;7.952;2022-09-03T05:22:03;18.20;72.50
7447;DHT22;3765;47.962;7.952;2022-09-03T05:24:31;18.20;72.30
7447;DHT22;3765;47.962;7.952;2022-09-03T05:26:59;18.20;72.30
7447;DHT22;3765;47.962;7.952;2022-09-03T05:29:28;18.30;72.20
7447;DHT22;3765;47.962;7.952;2022-09-03T05:31:56;18.30;72.10
7447;DHT22;3765;47.962;7.952;2022-09-03T05:34:24;18.30;71.90
7447;DHT22;3765;47.962;7.952;2022-09-03T05:36:53;18.40;71.90
7447;DHT22;3765;47.962;7.952;2022-09-03T05:39:25;18.40;71.60
7447;DHT22;3765;47.962;7.952;2022-09-03T05:41:54;18.40;71.50
7447;DHT22;3765;47.962;7.952;2022-09-03T05:44:22;18.50;71.40
7447;DHT22;3765;47.962;7.952;2022-09-03T05:46:50;18.60;71.10
7447;DHT22;3765;47.962;7.952;2022-09-03T05:49:19;18.70;71.10
7447;DHT22;3765;47.962;7.952;2022-09-03T05:51:47;18.70;70.90
7447;DHT22;3765;47.962;7.952;2022-09-03T05:54:15;18.80;70.70
7447;DHT22;3765;47.962;7.952;2022-09-03T05:56:45;18.70;70.70
7447;DHT22;3765;47.962;7.952;2022-09-03T05:59:13;18.70;70.80
7447;DHT22;3765;47.962;7.952;2022-09-03T06:01:43;18.60;70.80
7447;DHT22;3765;47.962;7.952;2022-09-03T06:04:18;18.70;70.90
7447;DHT22;3765;47.962;7.952;2022-09-03T06:06:46;18.70;70.80
7447;DHT22;3765;47.962;7.952;2022-09-03T06:09:18;18.70;70.80
7447;DHT22;3765;47.962;7.952;2022-09-03T06:11:51;18.70;70.90
7447;DHT22;3765;47.962;7.952;2022-09-03T06:14:23;18.80;70.60
7447;DHT22;3765;47.962;7.952;2022-09-03T06:16:51;18.80;70.60
7447;DHT22;3765;47.962;7.952;2022-09-03T06:19:21;18.80;70.40
7447;DHT22;3765;47.962;7.952;2022-09-03T06:21:49;18.80;70.50
7447;DHT22;3765;47.962;7.952;2022-09-03T06:24:19;18.90;70.50
7447;DHT22;3765;47.962;7.952;2022-09-03T06:26:55;19.00;70.60
7447;DHT22;3765;47.962;7.952;2022-09-03T06:29:23;19.10;70.30
7447;DHT22;3765;47.962;7.952;2022-09-03T06:31:51;19.10;70.30
7447;DHT22;3765;47.962;7.952;2022-09-03T06:34:20;19.20;70.30
7447;DHT22;3765;47.962;7.952;2022-09-03T06:36:51;19.30;70.10
7447;DHT22;3765;47.962;7.952;2022-09-03T06:39:21;19.50;69.70
7447;DHT22;3765;47.962;7.952;2022-09-03T06:41:50;19.70;69.50
7447;DHT22;3765;47.962;7.952;2022-09-03T06:44:20;19.80;69.00
7447;DHT22;3765;47.962;7.952;2022-09-03T06:46:48;19.80;68.70
7447;DHT22;3765;47.962;7.952;2022-09-03T06:49:19;19.90;68.40
7447;DHT22;3765;47.962;7.952;2022-09-03T06:51:47;20.00;68.20
7447;DHT22;3765;47.962;7.952;2022-09-03T06:54:15;20.10;67.90
7447;DHT22;3765;47.962;7.952;2022-09-03T06:56:44;20.20;68.00
7447;DHT22;3765;47.962;7.952;2022-09-03T06:59:13;20.20;67.50
7447;DHT22;3765;47.962;7.952;2022-09-03T07:01:43;20.40;67.20
7447;DHT22;3765;47.962;7.952;2022-09-03T07:04:13;20.50;66.80
7447;DHT22;3765;47.962;7.952;2022-09-03T07:06:45;20.40;66.50
7447;DHT22;3765;47.962;7.952;2022-09-03T07:09:13;20.40;66.30
7447;DHT22;3765;47.962;7.952;2022-09-03T07:11:44;20.50;66.00
7447;DHT22;3765;47.962;7.952;2022-09-03T07:14:17;20.50;65.70
7447;DHT22;3765;47.962;7.952;2022-09-03T07:16:47;20.50;65.60
7447;DHT22;3765;47.962;7.952;2022-09-03T07:19:16;20.50;65.50
7447;DHT22;3765;47.962;7.952;2022-09-03T07:21:45;20.50;65.70
7447;DHT22;3765;47.962;7.952;2022-09-03T07:24:17;20.60;65.80
7447;DHT22;3765;47.962;7.952;2022-09-03T07:26:48;20.70;65.90
7447;DHT22;3765;47.962;7.952;2022-09-03T07:29:16;20.70;66.00
7447;DHT22;3765;47.962;7.952;2022-09-03T07:31:49;20.80;65.90
7447;DHT22;3765;47.962;7.952;2022-09-03T07:34:19;21.00;65.80
7447;DHT22;3765;47.962;7.952;2022-09-03T07:36:51;21.20;65.50
7447;DHT22;3765;47.962;7.952;2022-09-03T07:39:19;21.30;65.20
7447;DHT22;3765;47.962;7.952;2022-09-03T07:41:48;21.40;65.00
7447;DHT22;3765;47.962;7.952;2022-09-03T07:44:17;21.70;65.10
7447;DHT22;3765;47.962;7.952;2022-09-03T07:46:48;21.80;64.40
7447;DHT22;3765;47.962;7.952;2022-09-03T07:49:18;21.70;64.10
7447;DHT22;3765;47.962;7.952;2022-09-03T07:51:47;21.80;64.00
7447;DHT22;3765;47.962;7.952;2022-09-03T07:54:20;21.90;63.70
7447;DHT22;3765;47.962;7.952;2022-09-03T07:56:50;22.00;63.40
7447;DHT22;3765;47.962;7.952;2022-09-03T07:59:18;22.00;62.60
7447;DHT22;3765;47.962;7.952;2022-09-03T08:01:50;22.20;62.50
7447;DHT22;3765;47.962;7.952;2022-09-03T08:04:18;22.30;62.00
7447;DHT22;3765;47.962;7.952;2022-09-03T08:06:47;22.30;61.40
7447;DHT22;3765;47.962;7.952;2022-09-03T08:09:21;22.30;61.30
7447;DHT22;3765;47.962;7.952;2022-09-03T08:11:49;22.30;61.20
7447;DHT22;3765;47.962;7.952;2022-09-03T08:14:18;22.30;60.90
7447;DHT22;3765;47.962;7.952;2022-09-03T08:16:46;22.30;60.90
7447;DHT22;3765;47.962;7.952;2022-09-03T08:19:16;22.40;60.60
7447;DHT22;3765;47.962;7.952;2022-09-03T08:21:45;22.60;60.50
7447;DHT22;3765;47.962;7.952;2022-09-03T08:24:15;22.70;60.00
7447;DHT22;3765;47.962;7.952;2022-09-03T08:26:43;22.60;60.00
7447;DHT22;3765;47.962;7.952;2022-09-03T08:29:18;22.70;59.80
7447;DHT22;3765;47.962;7.952;2022-09-03T08:31:46;22.80;59.70
7447;DHT22;3765;47.962;7.952;2022-09-03T08:34:16;22.80;59.00
7447;DHT22;3765;47.962;7.952;2022-09-03T08:36:45;22.60;59.00
7447;DHT22;3765;47.962;7.952;2022-09-03T08:39:14;22.30;59.30
7447;DHT22;3765;47.962;7.952;2022-09-03T08:42:05;22.20;59.80
7447;DHT22;3765;47.962;7.952;2022-09-03T08:44:42;22.30;59.80
7447;DHT22;3765;47.962;7.952;2022-09-03T08:47:17;22.20;59.90
7447;DHT22;3765;47.962;7.952;2022-09-03T08:49:53;22.20;59.90
7447;DHT22;3765;47.962;7.952;2022-09-03T08:52:27;22.10;60.00
7447;DHT22;3765;47.962;7.952;2022-09-03T08:55:06;22.10;60.30
7447;DHT22;3765;47.962;7.952;2022-09-03T08:57:42;22.00;60.30
7447;DHT22;3765;47.962;7.952;2022-09-03T09:00:13;21.90;60.50
7447;DHT22;3765;47.962;7.952;2022-09-03T09:02:51;21.90;60.70
7447;DHT22;3765;47.962;7.952;2022-09-03T09:05:24;22.00;60.70
7447;DHT22;3765;47.962;7.952;2022-09-03T09:08:04;22.00;60.90
7447;DHT22;3765;47.962;7.952;2022-09-03T09:10:42;21.80;61.80
7447;DHT22;3765;47.962;7.952;2022-09-03T09:13:19;21.20;63.00
7447;DHT22;3765;47.962;7.952;2022-09-03T09:15:56;20.90;64.20
7447;DHT22;3765;47.962;7.952;2022-09-03T09:18:41;20.80;64.80
7447;DHT22;3765;47.962;7.952;2022-09-03T09:21:17;20.60;65.40
7447;DHT22;3765;47.962;7.952;2022-09-03T09:23:51;20.40;66.00
7447;DHT22;3765;47.962;7.952;2022-09-03T09:26:22;20.30;66.70
7447;DHT22;3765;47.962;7.952;2022-09-03T09:28:54;20.30;67.00
7447;DHT22;3765;47.962;7.952;2022-09-03T09:31:24;20.00;67.20
7447;DHT22;3765;47.962;7.952;2022-09-03T09:33:54;19.90;67.90
7447;DHT22;3765;47.962;7.952;2022-09-03T09:36:24;19.80;68.00
7447;DHT22;3765;47.962;7.952;2022-09-03T09:38:52;19.80;68.40
7447;DHT22;3765;47.962;7.952;2022-09-03T09:41:22;19.90;68.70
7447;DHT22;3765;47.962;7.952;2022-09-03T09:44:00;19.80;69.10
7447;DHT22;3765;47.962;7.952;2022-09-03T09:46:34;19.70;69.80
7447;DHT22;3765;47.962;7.952;2022-09-03T09:49:17;19.50;69.80
7447;DHT22;3765;47.962;7.952;2022-09-03T09:52:00;19.50;70.30
7447;DHT22;3765;47.962;7.952;2022-09-03T09:54:28;19.40;70.80
7447;DHT22;3765;47.962;7.952;2022-09-03T09:56:59;19.20;71.20
7447;DHT22;3765;47.962;7.952;2022-09-03T09:59:30;19.20;71.70
7447;DHT22;3765;47.962;7.952;2022-09-03T10:02:09;19.10;72.00
7447;DHT22;3765;47.962;7.952;2022-09-03T10:04:48;18.80;72.70
7447;DHT22;3765;47.962;7.952;2022-09-03T10:07:25;18.80;72.90
7447;DHT22;3765;47.962;7.952;2022-09-03T10:10:00;18.80;73.20
7447;DHT22;3765;47.962;7.952;2022-09-03T10:12:31;18.80;73.20
7447;DHT22;3765;47.962;7.952;2022-09-03T10:15:11;18.60;73.70
7447;DHT22;3765;47.962;7.952;2022-09-03T10:17:53;18.60;74.20
7447;DHT22;3765;47.962;7.952;2022-09-03T10:20:27;18.50;74.40
7447;DHT22;3765;47.962;7.952;2022-09-03T10:23:06;18.50;74.60
7447;DHT22;3765;47.962;7.952;2022-09-03T10:25:45;18.30;75.00
7447;DHT22;3765;47.962;7.952;2022-09-03T10:28:21;18.20;75.30
7447;DHT22;3765;47.962;7.952;2022-09-03T10:31:08;18.00;76.20
7447;DHT22;3765;47.962;7.952;2022-09-03T10:33:43;18.00;76.50
7447;DHT22;3765;47.962;7.952;2022-09-03T10:36:18;18.20;76.80
7447;DHT22;3765;47.962;7.952;2022-09-03T10:38:54;18.30;76.80
7447;DHT22;3765;47.962;7.952;2022-09-03T10:41:38;18.50;76.80
7447;DHT22;3765;47.962;7.952;2022-09-03T10:44:28;18.50;76.40
7447;DHT22;3765;47.962;7.952;2022-09-03T10:47:13;18.60;76.00
7447;DHT22;3765;47.962;7.952;2022-09-03T10:49:50;18.50;76.20
7447;DHT22;3765;47.962;7.952;2022-09-03T10:52:28;18.70;76.60
7447;DHT22;3765;47.962;7.952;2022-09-03T10:55:16;18.70;76.80
7447;DHT22;3765;47.962;7.952;2022-09-03T10:57:53;18.50;77.00
7447;DHT22;3765;47.962;7.952;2022-09-03T11:00:22;18.40;77.10
7447;DHT22;3765;47.962;7.952;2022-09-03T11:03:21;18.40;77.40
7447;DHT22;3765;47.962;7.952;2022-09-03T11:05:57;18.60;77.70
7447;DHT22;3765;47.962;7.952;2022-09-03T11:08:30;18.70;77.40
7447;DHT22;3765;47.962;7.952;2022-09-03T11:11:09;18.60;77.30
7447;DHT22;3765;47.962;7.952;2022-09-03T11:13:43;18.50;77.10
7447;DHT22;3765;47.962;7.952;2022-09-03T11:16:16;18.40;77.30
7447;DHT22;3765;47.962;7.952;2022-09-03T11:18:49;18.50;77.30
7447;DHT22;3765;47.962;7.952;2022-09-03T11:21:22;18.60;77.10
7447;DHT22;3765;47.962;7.952;2022-09-03T11:23:57;18.80;77.10
7447;DHT22;3765;47.962;7.952;2022-09-03T11:26:30;18.70;76.60
7447;DHT22;3765;47.962;7.952;2022-09-03T11:29:03;18.80;76.60
7447;DHT22;3765;47.962;7.952;2022-09-03T11:31:44;18.80;76.80
7447;DHT22;3765;47.962;7.952;2022-09-03T11:34:25;19.00;77.10
7447;DHT22;3765;47.962;7.952;2022-09-03T11:37:06;19.30;77.00
7447;DHT22;3765;47.962;7.952;2022-09-03T11:39:40;19.70;76.90
7447;DHT22;3765;47.962;7.952;2022-09-03T11:42:12;19.80;76.10
7447;DHT22;3765;47.962;7.952;2022-09-03T11:44:49;20.00;75.80
7447;DHT22;3765;47.962;7.952;2022-09-03T11:47:22;20.30;75.50
7447;DHT22;3765;47.962;7.952;2022-09-03T11:49:52;20.40;74.70
7447;DHT22;3765;47.962;7.952;2022-09-03T11:52:28;20.30;74.60
7447;DHT22;3765;47.962;7.952;2022-09-03T11:54:58;20.40;74.40
7447;DHT22;3765;47.962;7.952;2022-09-03T11:57:29;20.30;73.50
7447;DHT22;3765;47.962;7.952;2022-09-03T12:00:07;20.60;72.90
7447;DHT22;3765;47.962;7.952;2022-09-03T12:02:43;20.80;73.00
7447;DHT22;3765;47.962;7.952;2022-09-03T12:05:24;21.40;71.80
7447;DHT22;3765;47.962;7.952;2022-09-03T12:08:35;21.70;71.50
7447;DHT22;3765;47.962;7.952;2022-09-03T12:11:20;22.00;71.30
7447;DHT22;3765;47.962;7.952;2022-09-03T12:13:59;22.30;70.20
7447;DHT22;3765;47.962;7.952;2022-09-03T12:16:45;22.30;69.40
7447;DHT22;3765;47.962;7.952;2022-09-03T12:19:24;22.50;69.20
7447;DHT22;3765;47.962;7.952;2022-09-03T12:21:54;22.90;68.20
7447;DHT22;3765;47.962;7.952;2022-09-03T12:24:25;22.90;67.90
7447;DHT22;3765;47.962;7.952;2022-09-03T12:27:04;23.00;66.70
7447;DHT22;3765;47.962;7.952;2022-09-03T12:29:35;22.80;66.30
7447;DHT22;3765;47.962;7.952;2022-09-03T12:32:08;23.00;66.30
7447;DHT22;3765;47.962;7.952;2022-09-03T12:34:38;23.30;66.10
7447;DHT22;3765;47.962;7.952;2022-09-03T12:37:21;23.50;65.00
7447;DHT22;3765;47.962;7.952;2022-09-03T12:40:19;23.50;64.50
7447;DHT22;3765;47.962;7.952;2022-09-03T12:42:48;23.70;64.30
7447;DHT22;3765;47.962;7.952;2022-09-03T12:45:21;23.80;64.10
7447;DHT22;3765;47.962;7.952;2022-09-03T12:47:50;23.70;63.40
7447;DHT22;3765;47.962;7.952;2022-09-03T12:50:21;23.80;63.70
7447;DHT22;3765;47.962;7.952;2022-09-03T12:52:52;23.90;63.40
7447;DHT22;3765;47.962;7.952;2022-09-03T12:55:28;24.30;63.40
7447;DHT22;3765;47.962;7.952;2022-09-03T12:58:04;25.00;62.60
7447;DHT22;3765;47.962;7.952;2022-09-03T13:00:43;25.00;61.20
7447;DHT22;3765;47.962;7.952;2022-09-03T13:03:16;24.60;60.90
7447;DHT22;3765;47.962;7.952;2022-09-03T13:05:48;24.70;60.70
7447;DHT22;3765;47.962;7.952;2022-09-03T13:08:22;24.40;59.80
7447;DHT22;3765;47.962;7.952;2022-09-03T13:10:52;24.10;60.20
7447;DHT22;3765;47.962;7.952;2022-09-03T13:13:24;24.30;60.80
7447;DHT22;3765;47.962;7.952;2022-09-03T13:16:25;24.50;60.20
7447;DHT22;3765;47.962;7.952;2022-09-03T13:19:02;24.30;59.80
7447;DHT22;3765;47.962;7.952;2022-09-03T13:21:40;24.30;60.00
7447;DHT22;3765;47.962;7.952;2022-09-03T13:24:25;24.30;59.70
7447;DHT22;3765;47.962;7.952;2022-09-03T13:27:01;24.20;59.70
7447;DHT22;3765;47.962;7.952;2022-09-03T13:29:38;24.20;59.50
7447;DHT22;3765;47.962;7.952;2022-09-03T13:32:24;24.50;59.50
7447;DHT22;3765;47.962;7.952;2022-09-03T13:35:07;24.60;58.50
7447;DHT22;3765;47.962;7.952;2022-09-03T13:37:40;24.60;58.80
7447;DHT22;3765;47.962;7.952;2022-09-03T13:40:21;24.90;58.00
7447;DHT22;3765;47.962;7.952;2022-09-03T13:42:57;24.80;58.20
7447;DHT22;3765;47.962;7.952;2022-09-03T13:45:34;24.70;58.10
7447;DHT22;3765;47.962;7.952;2022-09-03T13:48:09;24.90;58.10
7447;DHT22;3765;47.962;7.952;2022-09-03T13:51:02;25.20;57.70
7447;DHT22;3765;47.962;7.952;2022-09-03T13:53:41;25.50;56.80
7447;DHT22;3765;47.962;7.952;2022-09-03T13:56:25;25.60;56.30
7447;DHT22;3765;47.962;7.952;2022-09-03T13:59:04;25.50;56.20
7447;DHT22;3765;47.962;7.952;2022-09-03T14:01:44;25.70;55.10
7447;DHT22;3765;47.962;7.952;2022-09-03T14:04:27;25.80;54.90
7447;DHT22;3765;47.962;7.952;2022-09-03T14:07:00;25.80;54.30
7447;DHT22;3765;47.962;7.952;2022-09-03T14:09:39;25.80;54.30
7447;DHT22;3765;47.962;7.952;2022-09-03T14:12:13;26.30;54.00
7447;DHT22;3765;47.962;7.952;2022-09-03T14:14:50;26.40;53.00
7447;DHT22;3765;47.962;7.952;2022-09-03T14:17:32;26.30;52.90
7447;DHT22;3765;47.962;7.952;2022-09-03T14:20:10;26.40;52.50
7447;DHT22;3765;47.962;7.952;2022-09-03T14:22:47;26.80;52.60
7447;DHT22;3765;47.962;7.952;2022-09-03T14:25:18;27.20;51.90
7447;DHT22;3765;47.962;7.952;2022-09-03T14:27:47;26.30;51.50
7447;DHT22;3765;47.962;7.952;2022-09-03T14:30:26;26.00;52.20
7447;DHT22;3765;47.962;7.952;2022-09-03T14:33:03;25.80;52.10
7447;DHT22;3765;47.962;7.952;2022-09-03T14:35:48;25.80;52.10
7447;DHT22;3765;47.962;7.952;2022-09-03T14:38:49;26.00;51.90
7447;DHT22;3765;47.962;7.952;2022-09-03T14:42:06;25.90;51.80
7447;DHT22;3765;47.962;7.952;2022-09-03T14:44:56;26.50;51.80
7447;DHT22;3765;47.962;7.952;2022-09-03T14:47:35;27.20;50.70
7447;DHT22;3765;47.962;7.952;2022-09-03T14:50:19;27.20;50.90
7447;DHT22;3765;47.962;7.952;2022-09-03T14:53:16;27.80;50.10
7447;DHT22;3765;47.962;7.952;2022-09-03T14:55:58;28.10;49.30
7447;DHT22;3765;47.962;7.952;2022-09-03T14:58:42;28.10;48.80
7447;DHT22;3765;47.962;7.952;2022-09-03T15:01:13;28.20;48.50
7447;DHT22;3765;47.962;7.952;2022-09-03T15:04:16;28.80;47.80
7447;DHT22;3765;47.962;7.952;2022-09-03T15:06:56;28.80;47.70
7447;DHT22;3765;47.962;7.952;2022-09-03T15:09:32;28.40;46.80
7447;DHT22;3765;47.962;7.952;2022-09-03T15:12:09;28.40;46.90
7447;DHT22;3765;47.962;7.952;2022-09-03T15:14:49;28.40;46.80
7447;DHT22;3765;47.962;7.952;2022-09-03T15:17:32;28.80;46.60
7447;DHT22;3765;47.962;7.952;2022-09-03T15:20:21;28.90;46.20
7447;DHT22;3765;47.962;7.952;2022-09-03T15:23:19;29.20;45.70
7447;DHT22;3765;47.962;7.952;2022-09-03T15:29:11;29.00;45.60
7447;DHT22;3765;47.962;7.952;2022-09-03T15:31:51;29.70;44.80
7447;DHT22;3765;47.962;7.952;2022-09-03T15:34:41;30.20;44.40
7447;DHT22;3765;47.962;7.952;2022-09-03T15:37:18;29.80;44.20
7447;DHT22;3765;47.962;7.952;2022-09-03T15:39:58;29.80;44.00
7447;DHT22;3765;47.962;7.952;2022-09-03T15:42:29;30.20;43.60
7447;DHT22;3765;47.962;7.952;2022-09-03T15:45:04;30.70;43.70
7447;DHT22;3765;47.962;7.952;2022-09-03T15:47:39;30.50;43.20
7447;DHT22;3765;47.962;7.952;2022-09-03T15:50:28;31.70;42.70
7447;DHT22;3765;47.962;7.952;2022-09-03T15:53:01;33.40;38.90
7447;DHT22;3765;47.962;7.952;2022-09-03T15:55:33;34.20;40.00
7447;DHT22;3765;47.962;7.952;2022-09-03T15:58:09;35.30;38.70
7447;DHT22;3765;47.962;7.952;2022-09-03T16:00:57;36.20;36.50
7447;DHT22;3765;47.962;7.952;2022-09-03T16:03:42;39.00;34.60
7447;DHT22;3765;47.962;7.952;2022-09-03T16:06:23;41.70;31.80
7447;DHT22;3765;47.962;7.952;2022-09-03T16:08:58;42.20;29.50
7447;DHT22;3765;47.962;7.952;2022-09-03T16:11:35;42.20;29.70
7447;DHT22;3765;47.962;7.952;2022-09-03T16:14:08;42.70;28.40
7447;DHT22;3765;47.962;7.952;2022-09-03T16:16:56;43.50;27.20
7447;DHT22;3765;47.962;7.952;2022-09-03T16:19:29;38.80;28.10
7447;DHT22;3765;47.962;7.952;2022-09-03T16:22:00;33.50;31.60
7447;DHT22;3765;47.962;7.952;2022-09-03T16:24:40;30.70;33.80
7447;DHT22;3765;47.962;7.952;2022-09-03T16:27:16;28.80;36.00
7447;DHT22;3765;47.962;7.952;2022-09-03T16:29:56;27.70;37.90
7447;DHT22;3765;47.962;7.952;2022-09-03T16:32:42;26.90;39.20
7447;DHT22;3765;47.962;7.952;2022-09-03T16:35:23;26.30;40.40
7447;DHT22;3765;47.962;7.952;2022-09-03T16:38:06;25.80;41.70
7447;DHT22;3765;47.962;7.952;2022-09-03T16:40:41;25.70;42.40
7447;DHT22;3765;47.962;7.952;2022-09-03T16:43:22;25.40;43.30
7447;DHT22;3765;47.962;7.952;2022-09-03T16:46:23;25.30;43.90
7447;DHT22;3765;47.962;7.952;2022-09-03T16:49:03;25.30;44.60
7447;DHT22;3765;47.962;7.952;2022-09-03T16:51:38;25.10;45.30
7447;DHT22;3765;47.962;7.952;2022-09-03T16:54:24;25.00;45.70
7447;DHT22;3765;47.962;7.952;2022-09-03T16:57:04;24.90;46.00